Time;durP1;ratioP1;P1;durP2;ratioP2;P2;SDS_P1;SDS_P2;PMS_P1;PMS_P2;Temp;Humidity;BMP_temperature;BMP_pressure;BME280_temperature;BME280_humidity;BME280_pressure;Samples;Min_cycle;Max_cycle;Signal;HPM_P1;HPM_P2
2023/07/10 00:00:28;;;;;;;12.27;7.70;;;20.80;99.90;;;;;;5051109;28;20431;-72
2023/07/10 00:02:54;;;;;;;8.38;6.80;;;20.80;99.90;;;;;;5044449;28;20040;-72
2023/07/10 00:05:24;;;;;;;9.93;7.93;;;20.80;99.90;;;;;;5046915;28;20619;-72
2023/07/10 00:07:50;;;;;;;15.63;10.48;;;20.80;99.90;;;;;;5047132;28;20036;-72
2023/07/10 00:10:17;;;;;;;11.35;8.82;;;20.80;99.90;;;;;;5028916;28;20387;-72
2023/07/10 00:12:44;;;;;;;10.77;7.05;;;20.80;99.90;;;;;;5043370;28;20525;-72
2023/07/10 00:15:15;;;;;;;15.75;11.05;;;20.80;99.90;;;;;;5050901;28;20032;-72
2023/07/10 00:17:45;;;;;;;11.23;7.47;;;20.80;99.90;;;;;;5058396;28;21863;-71
2023/07/10 00:20:23;;;;;;;10.88;7.50;;;20.80;99.90;;;;;;5052533;28;20037;-72
2023/07/10 00:22:50;;;;;;;11.20;7.20;;;20.80;99.90;;;;;;5045747;28;20042;-72
2023/07/10 00:25:17;;;;;;;11.13;7.47;;;20.80;99.90;;;;;;5048014;28;20020;-72
2023/07/10 00:27:44;;;;;;;13.57;9.00;;;20.80;99.90;;;;;;5048757;28;20407;-72
2023/07/10 00:30:31;;;;;;;16.42;10.32;;;20.80;99.90;;;;;;5044199;28;20382;-72
2023/07/10 00:32:58;;;;;;;11.48;6.70;;;20.80;99.90;;;;;;5044048;28;20043;-72
2023/07/10 00:35:27;;;;;;;10.27;6.93;;;20.80;99.90;;;;;;5031435;28;20051;-72
2023/07/10 00:38:02;;;;;;;9.50;6.63;;;20.80;99.90;;;;;;5053684;28;20481;-72
2023/07/10 00:40:32;;;;;;;11.20;8.05;;;20.80;99.90;;;;;;5051969;28;20032;-72
2023/07/10 00:43:25;;;;;;;9.70;7.93;;;20.80;99.90;;;;;;5051836;28;20620;-72
2023/07/10 00:45:52;;;;;;;;;;;20.80;99.90;;;;;;5048001;28;20024;-72
2023/07/10 00:48:19;;;;;;;14.38;8.93;;;20.80;99.90;;;;;;5048642;28;19904;-72
2023/07/10 00:50:48;;;;;;;8.95;6.63;;;20.80;99.90;;;;;;5042107;28;20040;-72
2023/07/10 00:53:25;;;;;;;13.48;9.80;;;20.80;99.90;;;;;;5044653;28;20039;-72
2023/07/10 00:55:55;;;;;;;12.45;7.82;;;20.80;99.90;;;;;;5048817;28;20035;-72
2023/07/10 00:58:38;;;;;;;8.02;6.25;;;20.80;99.90;;;;;;5038848;28;20028;-72
2023/07/10 01:01:08;;;;;;;12.48;8.20;;;20.80;99.90;;;;;;5053848;28;20391;-72
2023/07/10 01:03:37;;;;;;;7.80;5.75;;;20.70;99.90;;;;;;5048608;28;20031;-72
2023/07/10 01:06:09;;;;;;;9.43;6.65;;;20.70;99.90;;;;;;5045048;28;20384;-72
2023/07/10 01:08:36;;;;;;;10.75;6.70;;;20.70;99.90;;;;;;5062088;28;20035;-72
2023/07/10 01:11:03;;;;;;;9.73;7.75;;;20.70;99.90;;;;;;5044304;28;20312;-72
2023/07/10 01:13:29;;;;;;;10.15;7.28;;;20.70;99.90;;;;;;5042170;28;20040;-72
2023/07/10 01:15:57;;;;;;;10.80;8.35;;;20.70;99.90;;;;;;5046324;28;20043;-72
2023/07/10 01:18:24;;;;;;;9.43;7.47;;;20.70;99.90;;;;;;5055895;28;21017;-72
2023/07/10 01:21:06;;;;;;;13.07;8.55;;;20.60;99.90;;;;;;5054127;28;20047;-72
2023/07/10 01:23:33;;;;;;;10.85;7.97;;;20.60;99.90;;;;;;5054165;28;20024;-72
2023/07/10 01:26:03;;;;;;;7.97;6.78;;;20.50;99.90;;;;;;5034903;28;20028;-72
2023/07/10 01:28:33;;;;;;;15.73;10.27;;;20.40;99.90;;;;;;5038208;28;20044;-72
2023/07/10 01:31:07;;;;;;;11.02;7.50;;;20.40;99.90;;;;;;5046160;28;20042;-72
2023/07/10 01:33:38;;;;;;;8.27;6.25;;;20.40;99.90;;;;;;5027814;28;20040;-72
2023/07/10 01:36:06;;;;;;;10.02;6.78;;;20.20;99.90;;;;;;5036135;28;20036;-72
2023/07/10 01:38:41;;;;;;;9.98;7.75;;;20.20;99.90;;;;;;5055037;28;20032;-72
2023/07/10 01:41:30;;;;;;;12.27;8.13;;;20.20;99.90;;;;;;5073513;28;20445;-71
2023/07/10 01:43:57;;;;;;;12.35;7.82;;;20.10;99.90;;;;;;5021116;28;20561;-72
2023/07/10 01:46:26;;;;;;;10.15;7.05;;;20.10;99.90;;;;;;5065712;28;20040;-72
2023/07/10 01:48:56;;;;;;;13.95;7.80;;;20.10;99.90;;;;;;5031749;28;20039;-71
2023/07/10 01:51:23;;;;;;;8.32;6.35;;;20.10;99.90;;;;;;5031030;28;20624;-72
2023/07/10 01:53:50;;;;;;;8.27;5.75;;;20.00;99.90;;;;;;5043602;28;20047;-72
2023/07/10 01:56:18;;;;;;;8.63;5.78;;;20.00;99.90;;;;;;5050749;28;20028;-71
2023/07/10 01:58:45;;;;;;;7.72;6.05;;;20.00;99.90;;;;;;5054973;28;20047;-72
2023/07/10 02:01:11;;;;;;;6.78;4.47;;;20.00;99.90;;;;;;5071674;28;20028;-71
2023/07/10 02:03:38;;;;;;;7.57;5.80;;;20.00;99.90;;;;;;5036538;28;20043;-72
2023/07/10 02:06:04;;;;;;;6.72;5.13;;;20.00;99.90;;;;;;5048412;28;20397;-72
2023/07/10 02:08:30;;;;;;;9.45;6.72;;;20.00;99.90;;;;;;5050716;28;20047;-71
2023/07/10 02:10:57;;;;;;;5.75;3.85;;;20.00;99.90;;;;;;5028095;28;20043;-72
2023/07/10 02:13:26;;;;;;;7.88;5.47;;;20.10;99.90;;;;;;5061653;28;20378;-72
2023/07/10 02:15:54;;;;;;;5.32;3.88;;;20.10;99.90;;;;;;5050095;28;20378;-72
2023/07/10 02:18:20;;;;;;;8.18;5.03;;;20.20;99.90;;;;;;5050746;28;20040;-71
2023/07/10 02:20:50;;;;;;;7.75;4.60;;;20.10;99.90;;;;;;5054122;28;20043;-72
2023/07/10 02:23:18;;;;;;;6.57;5.20;;;20.20;99.90;;;;;;5053625;28;20032;-72
2023/07/10 02:25:46;;;;;;;6.78;5.35;;;20.20;99.90;;;;;;5040678;28;20048;-71
2023/07/10 02:28:12;;;;;;;5.93;4.50;;;20.10;99.90;;;;;;5050857;28;20047;-73
2023/07/10 02:30:39;;;;;;;7.10;4.60;;;20.10;99.90;;;;;;5033196;28;20475;-73
2023/07/10 02:33:06;;;;;;;6.85;5.03;;;20.10;99.90;;;;;;5046124;28;20035;-72
2023/07/10 02:35:32;;;;;;;5.70;4.60;;;20.10;99.90;;;;;;5051598;28;20476;-72
2023/07/10 02:37:59;;;;;;;5.65;4.45;;;20.10;99.90;;;;;;5050769;28;20032;-72
2023/07/10 02:40:25;;;;;;;6.35;4.25;;;20.00;99.90;;;;;;5049726;28;20043;-71
2023/07/10 02:42:52;;;;;;;6.20;4.60;;;20.00;99.90;;;;;;5041281;28;20043;-74
2023/07/10 02:45:19;;;;;;;6.85;4.57;;;20.00;99.90;;;;;;5059085;28;20047;-72
2023/07/10 02:47:45;;;;;;;7.32;4.38;;;20.00;99.90;;;;;;5053638;28;20468;-71
2023/07/10 02:50:12;;;;;;;7.88;5.13;;;20.00;99.90;;;;;;5044451;28;20040;-72
2023/07/10 02:52:38;;;;;;;8.02;4.03;;;20.00;99.90;;;;;;5042741;28;20036;-72
2023/07/10 02:55:05;;;;;;;5.53;3.55;;;20.00;99.90;;;;;;5050237;28;20040;-72
2023/07/10 02:57:31;;;;;;;5.68;3.97;;;20.00;99.90;;;;;;5049937;28;20035;-71
2023/07/10 02:59:58;;;;;;;6.35;4.55;;;20.00;99.90;;;;;;5042962;28;20032;-71
2023/07/10 03:02:24;;;;;;;5.55;3.80;;;20.00;99.90;;;;;;5049495;28;20387;-72
2023/07/10 03:04:50;;;;;;;5.10;3.63;;;20.00;99.90;;;;;;5058554;28;20028;-72
2023/07/10 03:07:17;;;;;;;5.65;3.80;;;20.00;99.90;;;;;;5058272;28;20039;-72
2023/07/10 03:09:43;;;;;;;6.80;3.83;;;20.00;99.90;;;;;;5046836;28;20419;-71
2023/07/10 03:12:10;;;;;;;4.93;3.50;;;20.00;99.90;;;;;;5028150;28;20032;-72
2023/07/10 03:14:36;;;;;;;4.93;3.13;;;20.00;99.90;;;;;;5031611;28;20331;-71
2023/07/10 03:17:04;;;;;;;10.32;3.25;;;20.00;99.90;;;;;;5032788;28;20510;-71
2023/07/10 03:19:31;;;;;;;5.63;2.83;;;19.90;99.90;;;;;;5026749;28;20040;-72
2023/07/10 03:21:58;;;;;;;6.85;3.05;;;19.90;99.90;;;;;;5026516;28;20037;-71
2023/07/10 03:24:24;;;;;;;6.53;2.70;;;19.80;99.90;;;;;;5056208;28;20023;-71
2023/07/10 03:26:51;;;;;;;2.95;1.85;;;19.70;99.90;;;;;;5056961;28;20032;-72
2023/07/10 03:29:17;;;;;;;3.03;1.98;;;19.70;99.90;;;;;;5051504;28;20695;-71
2023/07/10 03:31:43;;;;;;;4.53;2.08;;;19.70;99.90;;;;;;5043751;28;20037;-72
2023/07/10 03:34:14;;;;;;;3.97;1.90;;;19.70;99.90;;;;;;5048292;28;20036;-71
2023/07/10 03:36:41;;;;;;;4.38;1.45;;;19.70;99.90;;;;;;5031475;28;20039;-71
2023/07/10 03:39:07;;;;;;;4.43;1.40;;;19.70;99.90;;;;;;5043508;28;20044;-72
2023/07/10 03:41:34;;;;;;;2.15;0.98;;;19.70;99.90;;;;;;5047808;28;20024;-71
2023/07/10 03:44:01;;;;;;;3.80;1.20;;;19.70;99.90;;;;;;5046321;28;20044;-72
2023/07/10 03:46:27;;;;;;;3.55;1.23;;;19.70;99.90;;;;;;5059519;28;20051;-71
2023/07/10 03:48:54;;;;;;;3.38;1.05;;;19.70;99.90;;;;;;5021141;28;20031;-71
2023/07/10 03:51:20;;;;;;;3.05;1.27;;;19.70;99.90;;;;;;5051361;28;20031;-71
2023/07/10 03:53:47;;;;;;;3.33;1.05;;;19.70;99.90;;;;;;5061993;28;20045;-71
2023/07/10 03:56:13;;;;;;;3.80;1.40;;;19.70;99.90;;;;;;5047574;28;20030;-71
2023/07/10 03:58:43;;;;;;;2.75;1.25;;;19.70;99.90;;;;;;5049624;28;20028;-72
2023/07/10 04:01:10;;;;;;;3.05;1.13;;;19.60;99.90;;;;;;5044840;28;20037;-71
2023/07/10 04:03:39;;;;;;;3.00;0.80;;;19.60;99.90;;;;;;5041614;28;20479;-71
2023/07/10 04:06:08;;;;;;;3.10;1.30;;;19.60;99.90;;;;;;5036363;28;20036;-72
2023/07/10 04:08:40;;;;;;;3.92;1.83;;;19.60;99.90;;;;;;5038142;28;20037;-72
2023/07/10 04:11:19;;;;;;;3.28;1.55;;;19.60;99.90;;;;;;5017219;28;20487;-71
2023/07/10 04:13:46;;;;;;;3.95;1.33;;;19.60;99.90;;;;;;5045437;28;20036;-72
2023/07/10 04:16:20;;;;;;;2.78;1.30;;;19.60;99.90;;;;;;5049885;28;20028;-71
2023/07/10 04:18:48;;;;;;;3.03;1.10;;;19.60;99.90;;;;;;5047529;28;20032;-71
2023/07/10 04:21:18;;;;;;;2.50;1.42;;;19.50;99.90;;;;;;5044191;28;20035;-70
2023/07/10 04:23:45;;;;;;;2.95;1.25;;;19.50;99.90;;;;;;5043059;28;20492;-69
2023/07/10 04:26:17;;;;;;;2.20;1.15;;;19.50;99.90;;;;;;5049245;28;20028;-70
2023/07/10 04:28:46;;;;;;;3.15;1.20;;;19.50;99.90;;;;;;5072072;28;20386;-70
2023/07/10 04:31:12;;;;;;;3.20;1.50;;;19.40;99.90;;;;;;5054192;28;20035;-72
2023/07/10 04:33:39;;;;;;;4.05;1.77;;;19.40;99.90;;;;;;5049399;28;21417;-70
2023/07/10 04:36:05;;;;;;;4.93;1.20;;;19.30;99.90;;;;;;5049796;28;20048;-72
2023/07/10 04:38:32;;;;;;;3.58;1.65;;;19.30;99.90;;;;;;5049709;28;20028;-70
2023/07/10 04:41:00;;;;;;;2.92;1.23;;;19.40;99.90;;;;;;5043405;28;20043;-70
2023/07/10 04:43:30;;;;;;;2.97;1.05;;;19.40;99.90;;;;;;5025709;28;20475;-70
2023/07/10 04:45:59;;;;;;;4.70;1.70;;;19.40;99.90;;;;;;5048255;28;20376;-70
2023/07/10 04:48:26;;;;;;;2.63;1.25;;;19.50;99.90;;;;;;5051110;28;20023;-70
2023/07/10 04:50:54;;;;;;;3.25;1.23;;;19.40;99.90;;;;;;5052804;28;20387;-72
2023/07/10 04:53:21;;;;;;;4.85;2.20;;;19.40;99.90;;;;;;5051323;28;20043;-70
2023/07/10 04:55:50;;;;;;;3.03;1.00;;;19.40;99.90;;;;;;5034177;28;20044;-70
2023/07/10 04:58:17;;;;;;;3.55;1.23;;;19.40;99.90;;;;;;5048134;28;20062;-70
2023/07/10 05:00:44;;;;;;;3.58;1.50;;;19.40;99.90;;;;;;5043904;28;20045;-70
2023/07/10 05:03:11;;;;;;;2.47;1.35;;;19.50;99.90;;;;;;5041897;28;20044;-70
2023/07/10 05:05:37;;;;;;;3.35;1.23;;;19.50;99.90;;;;;;5061566;28;20024;-70
2023/07/10 05:08:03;;;;;;;5.20;1.52;;;19.50;99.90;;;;;;5048120;28;20028;-71
2023/07/10 05:10:30;;;;;;;6.45;2.08;;;19.60;99.90;;;;;;5048587;28;20040;-71
2023/07/10 05:12:56;;;;;;;2.80;1.10;;;19.50;99.90;;;;;;5018245;28;20393;-71
2023/07/10 05:15:23;;;;;;;2.90;1.30;;;19.50;99.90;;;;;;5057038;28;20036;-71
2023/07/10 05:17:49;;;;;;;3.17;1.30;;;19.50;99.90;;;;;;5049283;28;20031;-70
2023/07/10 05:20:15;;;;;;;4.93;1.90;;;19.40;99.90;;;;;;5045701;28;20043;-71
2023/07/10 05:22:42;;;;;;;2.50;1.20;;;19.30;99.90;;;;;;5043068;28;20028;-71
2023/07/10 05:25:09;;;;;;;2.42;1.10;;;19.30;99.90;;;;;;5064413;28;20051;-70
2023/07/10 05:27:37;;;;;;;3.45;1.13;;;19.20;99.90;;;;;;5046567;28;22453;-70
2023/07/10 05:30:04;;;;;;;3.45;1.25;;;19.20;99.90;;;;;;5045810;28;20035;-71
2023/07/10 05:32:31;;;;;;;4.07;1.55;;;19.30;99.90;;;;;;5051425;28;20028;-70
2023/07/10 05:34:57;;;;;;;5.70;1.35;;;19.30;99.90;;;;;;5056012;28;20044;-70
2023/07/10 05:37:23;;;;;;;3.95;1.02;;;19.40;99.90;;;;;;5050284;28;20047;-70
2023/07/10 05:39:50;;;;;;;4.32;1.30;;;19.30;99.90;;;;;;5024335;28;20040;-70
2023/07/10 05:42:17;;;;;;;4.28;1.30;;;19.40;99.90;;;;;;5045873;28;20288;-71
2023/07/10 05:44:43;;;;;;;3.83;1.13;;;19.60;99.90;;;;;;5031099;28;20048;-71
2023/07/10 05:47:10;;;;;;;5.03;1.33;;;19.70;99.90;;;;;;5048647;28;20036;-70
2023/07/10 05:49:36;;;;;;;5.80;1.35;;;19.60;99.90;;;;;;5043315;28;20016;-71
2023/07/10 05:52:02;;;;;;;4.15;0.98;;;19.50;99.90;;;;;;5050749;28;20036;-71
2023/07/10 05:54:29;;;;;;;5.18;1.38;;;19.50;99.90;;;;;;5058015;28;20039;-70
2023/07/10 05:56:55;;;;;;;3.40;1.58;;;19.40;99.90;;;;;;5057178;28;20028;-72
2023/07/10 05:59:21;;;;;;;5.72;1.65;;;19.40;99.90;;;;;;5039620;28;20070;-71
2023/07/10 06:01:48;;;;;;;4.85;1.50;;;19.50;99.90;;;;;;5044377;28;20039;-71
2023/07/10 06:04:14;;;;;;;4.50;1.17;;;19.70;99.90;;;;;;5048531;28;20643;-71
2023/07/10 06:06:40;;;;;;;1.98;0.82;;;20.00;99.90;;;;;;5050401;28;20033;-70
2023/07/10 06:09:07;;;;;;;2.08;0.82;;;20.30;99.90;;;;;;5045791;28;20028;-70
2023/07/10 06:11:33;;;;;;;4.00;1.05;;;20.70;99.90;;;;;;5051005;28;20542;-70
2023/07/10 06:13:59;;;;;;;4.65;1.33;;;21.00;99.90;;;;;;5073579;28;20408;-70
2023/07/10 06:16:27;;;;;;;1.73;0.93;;;21.20;99.90;;;;;;5059554;28;20271;-70
2023/07/10 06:18:53;;;;;;;5.03;1.75;;;21.50;99.90;;;;;;5052053;28;20058;-70
2023/07/10 06:21:19;;;;;;;5.65;1.20;;;21.50;99.90;;;;;;5046194;28;20487;-71
2023/07/10 06:23:46;;;;;;;3.30;0.90;;;21.50;99.90;;;;;;5046410;28;20044;-71
2023/07/10 06:26:12;;;;;;;3.65;1.40;;;21.40;99.90;;;;;;5050525;28;20033;-71
2023/07/10 06:28:38;;;;;;;3.05;0.88;;;21.50;99.90;;;;;;5034267;28;20471;-71
2023/07/10 06:31:08;;;;;;;3.47;1.15;;;21.70;99.90;;;;;;5044360;28;20035;-72
2023/07/10 06:33:35;;;;;;;5.40;1.15;;;21.90;99.90;;;;;;5038602;28;20103;-72
2023/07/10 06:36:02;;;;;;;3.15;1.00;;;22.00;99.90;;;;;;5058190;28;20422;-72
2023/07/10 06:38:29;;;;;;;4.55;0.90;;;22.10;99.90;;;;;;5054063;28;20725;-70
2023/07/10 06:40:55;;;;;;;4.22;0.80;;;22.20;99.90;;;;;;5046769;28;20028;-70
2023/07/10 06:43:22;;;;;;;4.82;0.70;;;22.30;99.90;;;;;;5048540;28;20051;-70
2023/07/10 06:45:49;;;;;;;3.13;0.70;;;22.40;99.90;;;;;;5069251;28;20527;-69
2023/07/10 06:48:16;;;;;;;3.60;0.60;;;22.60;99.90;;;;;;5052949;28;20040;-69
2023/07/10 06:50:49;;;;;;;2.65;0.68;;;22.80;99.90;;;;;;5045640;28;20044;-69
2023/07/10 06:53:15;;;;;;;3.05;0.77;;;23.00;99.90;;;;;;5054667;28;20051;-69
2023/07/10 06:55:44;;;;;;;4.30;1.08;;;23.10;99.90;;;;;;5063670;28;20530;-69
2023/07/10 06:58:12;;;;;;;3.25;0.75;;;23.20;99.90;;;;;;5025141;28;20162;-69
2023/07/10 07:00:39;;;;;;;3.58;0.60;;;23.30;99.90;;;;;;5045131;28;20035;-69
2023/07/10 07:03:07;;;;;;;2.63;0.60;;;23.40;99.90;;;;;;5041541;28;20107;-69
2023/07/10 07:05:33;;;;;;;3.72;0.82;;;23.50;99.90;;;;;;5063099;28;20028;-70
2023/07/10 07:08:00;;;;;;;4.70;0.63;;;23.50;99.90;;;;;;5028641;28;20499;-69
2023/07/10 07:10:26;;;;;;;2.58;0.90;;;23.50;99.90;;;;;;5042785;28;20382;-69
2023/07/10 07:12:52;;;;;;;4.95;1.38;;;23.60;99.90;;;;;;5047038;28;20033;-69
2023/07/10 07:15:19;;;;;;;3.08;0.50;;;23.60;99.90;;;;;;5058195;28;20047;-69
2023/07/10 07:17:45;;;;;;;3.33;0.70;;;23.70;99.90;;;;;;5056029;28;20486;-69
2023/07/10 07:20:11;;;;;;;4.15;0.75;;;23.80;99.90;;;;;;5046842;28;20036;-69
2023/07/10 07:22:38;;;;;;;2.40;0.60;;;23.90;99.90;;;;;;5042929;28;20344;-70
2023/07/10 07:25:05;;;;;;;1.50;0.50;;;24.00;99.90;;;;;;5046241;28;20649;-69
2023/07/10 07:27:32;;;;;;;4.35;0.60;;;24.20;99.90;;;;;;5046934;28;20040;-69
2023/07/10 07:30:02;;;;;;;4.50;0.60;;;24.30;99.90;;;;;;5042458;28;20055;-69
2023/07/10 07:32:28;;;;;;;3.78;0.60;;;24.50;99.90;;;;;;5042926;28;20040;-69
2023/07/10 07:34:54;;;;;;;3.10;0.55;;;24.60;99.90;;;;;;5019475;28;20036;-71
2023/07/10 07:37:21;;;;;;;5.22;1.20;;;24.70;99.90;;;;;;5038655;28;20040;-71
2023/07/10 07:39:47;;;;;;;5.43;1.08;;;24.80;99.90;;;;;;5048471;28;20043;-71
2023/07/10 07:42:13;;;;;;;5.30;1.10;;;24.80;99.90;;;;;;5043620;28;20151;-70
2023/07/10 07:44:41;;;;;;;4.53;1.02;;;24.80;99.90;;;;;;5047409;28;20470;-71
2023/07/10 07:47:08;;;;;;;3.97;1.02;;;24.70;99.90;;;;;;5029187;28;20078;-70
2023/07/10 07:49:34;;;;;;;3.85;0.50;;;24.80;99.90;;;;;;5041462;28;20032;-69
2023/07/10 07:52:00;;;;;;;2.97;0.80;;;24.90;99.90;;;;;;5041175;28;20075;-69
2023/07/10 07:54:27;;;;;;;3.65;0.57;;;25.00;99.90;;;;;;5047041;28;21387;-69
2023/07/10 07:56:53;;;;;;;3.75;0.73;;;25.10;99.90;;;;;;5056688;28;20036;-69
2023/07/10 07:59:21;;;;;;;2.03;0.60;;;25.30;99.90;;;;;;5048975;28;20056;-69
2023/07/10 08:01:49;;;;;;;3.40;0.75;;;25.40;99.90;;;;;;5051597;28;20033;-69
2023/07/10 08:04:17;;;;;;;5.50;0.65;;;25.40;99.90;;;;;;5012061;28;20082;-69
2023/07/10 08:06:45;;;;;;;3.40;0.75;;;25.50;99.90;;;;;;5047204;28;20035;-69
2023/07/10 08:09:12;;;;;;;4.55;0.85;;;25.50;99.90;;;;;;5040059;28;21269;-69
2023/07/10 08:11:38;;;;;;;5.72;0.75;;;25.60;99.90;;;;;;5046441;28;20031;-69
2023/07/10 08:14:04;;;;;;;3.50;0.80;;;25.60;99.90;;;;;;5027486;28;20051;-70
2023/07/10 08:16:31;;;;;;;5.07;1.20;;;25.60;99.90;;;;;;5048387;28;20399;-70
2023/07/10 08:18:57;;;;;;;4.05;0.75;;;25.70;99.90;;;;;;5054606;28;20044;-70
2023/07/10 08:21:23;;;;;;;5.03;0.70;;;25.70;99.90;;;;;;5073302;28;20036;-70
2023/07/10 08:23:49;;;;;;;4.00;0.90;;;25.80;99.90;;;;;;5050255;28;20260;-70
2023/07/10 08:26:16;;;;;;;4.63;1.15;;;25.90;99.90;;;;;;5048628;28;20514;-70
2023/07/10 08:28:42;;;;;;;4.20;0.65;;;25.90;99.90;;;;;;5047894;28;20502;-70
2023/07/10 08:31:08;;;;;;;3.75;0.70;;;25.90;99.90;;;;;;5026514;28;20408;-69
2023/07/10 08:33:35;;;;;;;5.00;0.68;;;25.90;99.90;;;;;;5042332;28;20546;-70
2023/07/10 08:36:04;;;;;;;3.67;0.90;;;26.00;99.90;;;;;;5048962;28;20462;-69
2023/07/10 08:38:35;;;;;;;4.65;0.80;;;26.10;99.90;;;;;;5054290;28;20039;-69
2023/07/10 08:41:12;;;;;;;4.88;0.63;;;26.30;99.90;;;;;;5051746;28;20036;-70
2023/07/10 08:43:40;;;;;;;4.30;0.73;;;26.40;99.90;;;;;;5050914;28;20055;-69
2023/07/10 08:46:15;;;;;;;3.88;0.60;;;26.40;99.90;;;;;;5051934;28;20221;-70
2023/07/10 08:48:59;;;;;;;3.22;0.80;;;26.50;99.90;;;;;;5048467;28;20498;-69
2023/07/10 08:51:34;;;;;;;4.45;0.68;;;26.60;99.90;;;;;;5034293;28;20333;-69
2023/07/10 08:54:01;;;;;;;4.13;0.90;;;26.70;99.90;;;;;;5061298;28;21048;-71
2023/07/10 08:56:55;;;;;;;2.80;0.70;;;26.60;99.90;;;;;;5048166;28;20039;-71
2023/07/10 08:59:27;;;;;;;3.83;0.70;;;26.70;99.90;;;;;;5039435;28;20040;-71
2023/07/10 09:01:55;;;;;;;4.60;0.60;;;26.80;99.90;;;;;;5051182;28;20036;-71
2023/07/10 09:04:22;;;;;;;6.25;1.08;;;26.80;99.60;;;;;;5054528;28;20387;-70
2023/07/10 09:06:51;;;;;;;3.38;0.60;;;26.70;99.40;;;;;;5048057;28;20031;-69
2023/07/10 09:09:38;;;;;;;3.47;0.60;;;26.70;99.40;;;;;;5045147;28;20024;-69
2023/07/10 09:12:11;;;;;;;5.72;0.70;;;26.60;99.60;;;;;;5045008;28;20789;-70
2023/07/10 09:14:55;;;;;;;3.40;0.82;;;26.70;99.60;;;;;;5046599;28;20043;-70
2023/07/10 09:17:40;;;;;;;4.82;0.70;;;26.90;99.30;;;;;;5043276;28;20435;-70
2023/07/10 09:20:10;;;;;;;3.55;0.70;;;27.20;99.30;;;;;;5063497;28;22464;-70
2023/07/10 09:22:45;;;;;;;4.22;0.82;;;27.40;98.90;;;;;;5036941;28;20059;-70
2023/07/10 09:25:12;;;;;;;4.22;0.60;;;27.50;98.60;;;;;;5056329;28;20012;-70
2023/07/10 09:27:45;;;;;;;3.33;0.50;;;27.70;98.60;;;;;;5047316;28;20043;-70
2023/07/10 09:30:49;;;;;;;3.70;0.80;;;27.80;98.50;;;;;;5041972;28;20037;-70
2023/07/10 09:33:16;;;;;;;3.38;0.90;;;27.80;98.10;;;;;;5033761;28;20059;-70
2023/07/10 09:35:43;;;;;;;5.70;0.80;;;27.70;97.20;;;;;;5047457;28;20422;-70
2023/07/10 09:38:12;;;;;;;4.43;0.90;;;27.40;97.20;;;;;;5048211;28;20035;-70
2023/07/10 09:40:40;;;;;;;5.50;0.70;;;27.20;97.50;;;;;;5049716;28;20040;-70
2023/07/10 09:43:25;;;;;;;3.67;0.75;;;27.10;97.40;;;;;;5054811;28;20704;-70
2023/07/10 09:45:56;;;;;;;4.88;0.73;;;27.30;97.50;;;;;;5057553;28;20035;-70
2023/07/10 09:48:36;;;;;;;3.08;0.88;;;27.20;97.30;;;;;;5035793;28;20064;-70
2023/07/10 09:51:09;;;;;;;4.60;1.02;;;27.20;97.20;;;;;;5046299;28;20435;-70
2023/07/10 09:53:45;;;;;;;3.85;0.70;;;27.30;97.20;;;;;;5063417;27;20125;-70
2023/07/10 09:56:38;;;;;;;4.65;0.80;;;27.50;97.20;;;;;;5034724;28;20890;-70
2023/07/10 09:59:23;;;;;;;5.55;1.08;;;27.60;96.50;;;;;;5045936;28;20028;-70
2023/07/10 10:01:52;;;;;;;3.33;0.75;;;27.60;96.30;;;;;;5051500;28;21413;-70
2023/07/10 10:04:27;;;;;;;4.18;0.70;;;27.50;96.50;;;;;;5058368;28;20027;-70
2023/07/10 10:06:56;;;;;;;2.42;0.55;;;27.50;96.50;;;;;;5061697;28;20047;-70
2023/07/10 10:09:29;;;;;;;2.05;0.57;;;27.60;96.30;;;;;;5049937;28;20044;-70
2023/07/10 10:12:26;;;;;;;2.88;0.82;;;27.70;95.70;;;;;;5047284;28;20040;-70
2023/07/10 10:15:32;;;;;;;3.67;0.73;;;27.80;95.50;;;;;;5050561;28;20040;-71
2023/07/10 10:18:01;;;;;;;3.85;0.80;;;27.80;94.60;;;;;;5048398;28;20043;-71
2023/07/10 10:20:31;;;;;;;3.17;0.80;;;27.70;94.70;;;;;;5046153;28;20046;-70
2023/07/10 10:22:58;;;;;;;4.82;0.70;;;27.60;94.60;;;;;;5050346;28;20434;-70
2023/07/10 10:25:39;;;;;;;4.10;0.65;;;27.70;94.70;;;;;;5062186;28;20035;-70
2023/07/10 10:28:14;;;;;;;5.10;0.80;;;28.00;94.80;;;;;;5060129;28;20039;-70
2023/07/10 10:30:48;;;;;;;3.00;0.60;;;28.30;94.50;;;;;;5048748;28;20032;-69
2023/07/10 10:33:40;;;;;;;2.67;0.60;;;28.40;93.10;;;;;;5046938;28;20307;-69
2023/07/10 10:36:53;;;;;;;2.03;0.57;;;28.20;92.30;;;;;;5053899;28;20028;-70
2023/07/10 10:39:42;;;;;;;2.03;0.60;;;27.90;92.50;;;;;;5012676;28;20051;-70
2023/07/10 10:42:21;;;;;;;2.40;0.68;;;28.00;92.50;;;;;;5044661;28;20043;-70
2023/07/10 10:44:59;;;;;;;3.40;0.50;;;27.80;92.00;;;;;;5070750;28;20036;-70
2023/07/10 10:47:37;;;;;;;3.63;0.50;;;27.60;92.10;;;;;;5059861;28;20438;-70
2023/07/10 10:50:32;;;;;;;3.30;0.55;;;27.80;92.60;;;;;;5071690;28;20036;-71
2023/07/10 10:53:02;;;;;;;2.95;0.70;;;28.20;92.90;;;;;;5045988;28;20600;-70
2023/07/10 10:55:40;;;;;;;4.68;0.80;;;28.70;92.70;;;;;;5036643;28;20089;-71
2023/07/10 10:58:29;;;;;;;2.90;0.70;;;29.30;91.80;;;;;;5049958;28;20360;-70
2023/07/10 11:01:33;;;;;;;4.68;0.82;;;29.70;90.80;;;;;;5029091;28;20067;-70
2023/07/10 11:04:17;;;;;;;5.22;0.90;;;30.10;90.80;;;;;;5045924;28;20372;-69
2023/07/10 11:07:04;;;;;;;4.65;1.10;;;30.60;90.50;;;;;;5074796;28;20024;-70
2023/07/10 11:09:39;;;;;;;6.90;0.98;;;31.10;89.70;;;;;;5054701;28;20036;-69
2023/07/10 11:12:15;;;;;;;4.22;0.75;;;31.40;88.30;;;;;;5051264;28;20036;-70
2023/07/10 11:14:43;;;;;;;3.78;0.75;;;31.60;86.80;;;;;;5050419;28;20481;-70
2023/07/10 11:17:11;;;;;;;5.60;0.80;;;31.30;84.90;;;;;;5050555;28;20040;-70
2023/07/10 11:19:38;;;;;;;4.18;0.90;;;30.80;84.80;;;;;;5041438;28;20032;-70
2023/07/10 11:22:31;;;;;;;5.38;0.80;;;30.90;84.30;;;;;;5026401;28;20242;-70
2023/07/10 11:25:01;;;;;;;7.10;1.10;;;31.20;82.90;;;;;;5049798;28;20031;-70
2023/07/10 11:27:31;;;;;;;4.63;0.70;;;31.40;81.90;;;;;;5058036;28;20046;-70
2023/07/10 11:30:14;;;;;;;3.75;0.73;;;31.30;81.20;;;;;;5051432;28;20406;-70
2023/07/10 11:33:16;;;;;;;6.35;1.10;;;30.90;82.00;;;;;;5048502;28;20028;-70
2023/07/10 11:36:11;;;;;;;3.22;0.73;;;30.70;82.70;;;;;;5048597;28;20221;-70
2023/07/10 11:39:05;;;;;;;3.58;0.70;;;30.50;82.10;;;;;;5051001;28;20028;-70
2023/07/10 11:41:35;;;;;;;4.72;0.90;;;30.60;81.60;;;;;;5050733;28;20383;-70
2023/07/10 11:44:14;;;;;;;3.42;0.50;;;30.60;80.80;;;;;;5057825;28;20056;-70
2023/07/10 11:47:01;;;;;;;3.38;0.88;;;31.30;81.20;;;;;;5047917;28;20036;-70
2023/07/10 11:49:34;;;;;;;2.95;0.70;;;32.30;80.20;;;;;;5049694;28;20039;-71
2023/07/10 11:52:20;;;;;;;3.97;0.90;;;33.10;78.20;;;;;;5050583;28;20032;-71
2023/07/10 11:54:49;;;;;;;3.88;0.80;;;33.60;74.90;;;;;;5046091;28;20052;-71
2023/07/10 11:57:22;;;;;;;4.28;0.80;;;33.00;74.20;;;;;;5030485;28;20040;-70
2023/07/10 11:59:57;;;;;;;3.90;0.82;;;32.50;74.40;;;;;;5041112;28;21701;-71
2023/07/10 12:02:36;;;;;;;4.05;0.70;;;32.90;75.40;;;;;;5055798;28;20031;-71
2023/07/10 12:05:15;;;;;;;3.80;0.88;;;33.10;73.30;;;;;;5047648;28;20423;-72
2023/07/10 12:07:53;;;;;;;3.75;0.93;;;32.50;72.60;;;;;;5029304;28;20036;-72
2023/07/10 12:10:21;;;;;;;5.65;1.00;;;32.50;73.30;;;;;;5068410;28;20054;-72
2023/07/10 12:12:48;;;;;;;3.42;0.60;;;32.90;73.40;;;;;;5068151;28;20039;-71
2023/07/10 12:15:14;;;;;;;6.32;0.85;;;33.40;72.20;;;;;;5052519;28;20506;-71
2023/07/10 12:17:41;;;;;;;3.63;0.70;;;33.20;71.20;;;;;;5047574;28;20043;-71
2023/07/10 12:20:30;;;;;;;5.28;0.90;;;32.90;70.80;;;;;;5045609;28;20335;-70
2023/07/10 12:23:09;;;;;;;3.65;0.60;;;32.20;71.10;;;;;;5044415;28;20475;-70
2023/07/10 12:25:35;;;;;;;4.00;0.88;;;32.00;72.30;;;;;;5065257;28;20035;-70
2023/07/10 12:28:16;;;;;;;6.68;1.05;;;32.60;71.70;;;;;;5049412;28;21131;-70
2023/07/10 12:30:47;;;;;;;6.70;0.90;;;33.30;71.00;;;;;;5051508;28;20051;-70
2023/07/10 12:33:25;;;;;;;;;;;34.10;69.40;;;;;;5051447;28;20044;-70
2023/07/10 12:35:52;;;;;;;4.28;0.77;;;34.60;68.40;;;;;;5056433;28;20417;-71
2023/07/10 12:38:18;;;;;;;2.70;0.65;;;35.30;67.60;;;;;;5046955;28;20016;-70
2023/07/10 12:40:45;;;;;;;4.90;1.10;;;36.00;66.60;;;;;;5043046;28;20487;-70
2023/07/10 12:43:23;;;;;;;4.80;0.68;;;35.70;64.40;;;;;;5039531;28;20040;-70
2023/07/10 12:46:02;;;;;;;5.55;1.02;;;35.80;64.60;;;;;;5058832;28;20794;-71
2023/07/10 12:48:31;;;;;;;4.25;0.90;;;36.30;64.40;;;;;;5046266;28;20055;-70
2023/07/10 12:51:01;;;;;;;5.75;0.73;;;36.60;62.80;;;;;;5035720;28;21807;-70
2023/07/10 12:53:34;;;;;;;4.82;0.95;;;36.00;61.80;;;;;;5048791;28;20032;-70
2023/07/10 12:56:19;;;;;;;5.72;1.20;;;35.30;62.70;;;;;;5055834;28;20035;-69
2023/07/10 12:58:48;;;;;;;2.97;0.63;;;34.50;63.10;;;;;;5029818;28;20040;-70
2023/07/10 13:01:20;;;;;;;3.13;0.65;;;33.60;64.60;;;;;;5027617;28;20044;-70
2023/07/10 13:03:59;;;;;;;4.72;1.00;;;33.00;66.50;;;;;;5041969;28;20043;-71